createdAt,value
2023-01-27T17:21:39.759Z,6.53
2023-01-27T17:24:15.459Z,13.90
2023-01-27T17:26:46.059Z,7.80
2023-01-27T17:29:19.429Z,2.97
2023-01-27T17:31:47.599Z,2.33
2023-01-27T17:34:19.600Z,4.20
2023-01-27T17:37:08.111Z,3.08
2023-01-27T17:39:39.590Z,2.58
2023-01-27T17:42:07.979Z,2.28
2023-01-27T17:44:36.560Z,2.67
2023-01-27T17:47:06.692Z,2.17
2023-01-27T17:49:34.695Z,2.85
2023-01-27T17:52:02.799Z,3.60
2023-01-27T17:54:33.713Z,2.25
2023-01-27T17:57:06.943Z,3.05
2023-01-27T17:59:36.817Z,3.47
2023-01-27T18:02:09.625Z,3.13
2023-01-27T18:04:42.719Z,4.78
2023-01-27T18:07:11.672Z,1.13
2023-01-27T18:09:52.021Z,4.47
2023-01-27T18:12:32.039Z,1.02
2023-01-27T18:15:00.103Z,2.53
2023-01-27T18:17:28.167Z,1.48
2023-01-27T18:19:57.708Z,0.80
2023-01-27T18:22:27.082Z,3.47
2023-01-27T18:25:00.159Z,2.28
2023-01-27T18:27:31.114Z,1.75
2023-01-27T18:30:04.476Z,0.95
2023-01-27T18:32:42.848Z,3.53
2023-01-27T18:35:24.330Z,0.47
2023-01-27T18:37:55.062Z,1.00
2023-01-27T18:40:27.638Z,1.55
2023-01-27T18:42:56.606Z,2.83
2023-01-27T18:45:25.191Z,5.13
2023-01-27T18:47:53.271Z,4.53
2023-01-27T18:50:22.651Z,5.32
2023-01-27T18:52:51.783Z,6.88
2023-01-27T18:55:21.483Z,5.95
2023-01-27T18:57:52.953Z,5.68
2023-01-27T19:00:23.248Z,8.65
2023-01-27T19:02:53.542Z,12.10
2023-01-27T19:05:23.340Z,11.93
2023-01-27T19:07:51.460Z,13.73
2023-01-27T19:10:24.890Z,20.50
2023-01-27T19:12:55.284Z,15.82
2023-01-27T19:15:24.423Z,16.88
2023-01-27T19:17:53.956Z,28.25
2023-01-27T19:20:23.451Z,27.33
2023-01-27T19:22:53.372Z,36.67
2023-01-27T19:25:21.894Z,36.53
2023-01-27T19:27:52.984Z,40.88
2023-01-27T19:30:27.972Z,44.03
2023-01-27T19:35:25.581Z,35.75
2023-01-27T19:37:56.506Z,38.20
2023-01-27T19:40:25.749Z,39.42
2023-01-27T19:42:53.657Z,38.60
2023-01-27T19:45:22.812Z,42.63
2023-01-27T19:47:52.861Z,37.47
2023-01-27T19:50:23.877Z,37.67
2023-01-27T19:52:52.160Z,37.83
2023-01-27T19:55:21.425Z,40.50
2023-01-27T19:57:50.427Z,36.58
2023-01-27T20:00:24.725Z,35.08
2023-01-27T20:02:53.972Z,35.17
2023-01-27T20:05:22.388Z,38.10
2023-01-27T20:07:50.501Z,34.70
2023-01-27T20:10:21.509Z,37.30
2023-01-27T20:12:57.548Z,38.08
2023-01-27T20:15:27.310Z,38.88
2023-01-27T20:17:56.946Z,40.13
2023-01-27T20:20:26.549Z,37.03
2023-01-27T20:22:54.643Z,38.30
2023-01-27T20:25:24.116Z,40.50
2023-01-27T20:27:53.929Z,43.03
2023-01-27T20:30:23.976Z,46.95
2023-01-27T20:32:53.844Z,47.42
2023-01-27T20:35:24.762Z,45.85
2023-01-27T20:37:54.058Z,57.72
2023-01-27T20:40:24.484Z,50.45
2023-01-27T20:42:53.019Z,51.75
2023-01-27T20:45:22.463Z,56.28
2023-01-27T20:47:51.176Z,51.58
2023-01-27T20:50:19.505Z,50.20
2023-01-27T20:52:49.304Z,49.72
2023-01-27T20:55:19.568Z,51.70
2023-01-27T20:57:47.853Z,50.15
2023-01-27T21:00:18.386Z,52.05
2023-01-27T21:02:46.430Z,51.88
2023-01-27T21:05:15.263Z,45.42
2023-01-27T21:07:43.473Z,41.25
2023-01-27T21:10:13.232Z,38.25
2023-01-27T21:12:41.098Z,39.00
2023-01-27T21:15:10.485Z,43.65
2023-01-27T21:17:38.633Z,45.10
2023-01-27T21:20:07.857Z,44.55
2023-01-27T21:22:35.783Z,53.20
2023-01-27T21:25:03.636Z,42.63
2023-01-27T21:27:32.876Z,43.45
2023-01-27T21:30:00.786Z,43.30
2023-01-27T21:32:28.755Z,37.95
2023-01-27T21:34:58.467Z,31.88
2023-01-27T21:37:26.496Z,34.42
2023-01-27T21:39:54.358Z,34.47
2023-01-27T21:42:39.388Z,31.15
2023-01-27T21:45:15.094Z,29.52
2023-01-27T21:47:43.329Z,28.77
2023-01-27T21:50:14.315Z,29.98
2023-01-27T21:52:44.846Z,33.47
2023-01-27T21:55:14.858Z,33.55
2023-01-27T21:57:43.281Z,32.10
2023-01-27T22:00:16.111Z,36.22
2023-01-27T22:02:44.280Z,30.88
2023-01-27T22:05:13.237Z,33.70
2023-01-27T22:07:42.157Z,32.72
2023-01-27T22:10:17.271Z,33.03
2023-01-27T22:12:45.739Z,32.92
2023-01-27T22:15:16.764Z,36.45
2023-01-27T22:17:45.120Z,39.28
2023-01-27T22:20:14.030Z,39.70
2023-01-27T22:22:42.146Z,37.22
2023-01-27T22:25:11.440Z,37.55
2023-01-27T22:27:41.313Z,37.28
2023-01-27T22:30:10.813Z,39.17
2023-01-27T22:32:40.039Z,38.58
2023-01-27T22:35:08.813Z,45.28
2023-01-27T22:37:37.674Z,39.63
2023-01-27T22:40:07.312Z,42.10
2023-01-27T22:42:35.670Z,39.47
2023-01-27T22:45:03.712Z,46.88
2023-01-27T22:47:31.584Z,42.95
2023-01-27T22:50:00.833Z,42.92
2023-01-27T22:52:28.661Z,38.40
2023-01-27T22:54:56.560Z,35.90
2023-01-27T22:57:30.063Z,42.13
2023-01-27T22:59:58.822Z,46.75
2023-01-27T23:02:27.882Z,47.22
2023-01-27T23:04:55.946Z,48.00
2023-01-27T23:07:26.210Z,49.75
2023-01-27T23:09:54.098Z,48.38
2023-01-27T23:12:22.062Z,41.42
2023-01-27T23:14:49.903Z,49.85
2023-01-27T23:17:17.776Z,54.90
2023-01-27T23:19:45.624Z,53.17
2023-01-27T23:22:13.483Z,62.22
2023-01-27T23:24:42.764Z,53.70
2023-01-27T23:27:10.843Z,57.33
2023-01-27T23:29:38.751Z,59.55
2023-01-27T23:32:07.207Z,60.88
2023-01-27T23:34:35.085Z,59.15
2023-01-27T23:37:02.952Z,72.20
2023-01-27T23:39:30.861Z,73.13
2023-01-27T23:42:00.098Z,73.65
2023-01-27T23:44:28.038Z,69.30
2023-01-27T23:46:55.934Z,71.10
2023-01-27T23:49:23.805Z,77.60
2023-01-27T23:51:51.623Z,73.85
2023-01-27T23:54:19.637Z,76.63
2023-01-27T23:56:47.503Z,79.97
2023-01-27T23:59:16.980Z,69.82
